createdAt,value
2019-04-01T00:02:55.035Z,35.8
2019-04-01T00:08:00.027Z,38.6
2019-04-01T00:13:05.294Z,38.9
2019-04-01T00:18:10.722Z,38.1
2019-04-01T00:23:15.988Z,40.9
2019-04-01T00:28:21.421Z,34.4
2019-04-01T00:33:25.247Z,32.3
2019-04-01T00:38:31.985Z,30.3
2019-04-01T00:43:37.577Z,28.4
2019-04-01T00:48:43.088Z,27.5
2019-04-01T00:53:48.525Z,25.6
2019-04-01T00:58:53.668Z,25.2
2019-04-01T01:03:58.829Z,24.6
2019-04-01T01:09:05.139Z,26.4
2019-04-01T01:14:10.340Z,24.7
2019-04-01T01:19:15.755Z,25.2
2019-04-01T01:24:20.936Z,25.6
2019-04-01T01:29:26.020Z,27
2019-04-01T01:34:31.340Z,25.6
2019-04-01T01:39:36.363Z,26.3
2019-04-01T01:44:40.571Z,25.9
2019-04-01T01:49:45.603Z,25
2019-04-01T01:54:51.028Z,24.7
2019-04-01T01:59:56.156Z,27.5
2019-04-01T02:05:01.369Z,27.1
2019-04-01T02:10:06.687Z,26
2019-04-01T02:15:11.823Z,25.3
2019-04-01T02:20:16.865Z,25.7
2019-04-01T02:25:21.038Z,26.8
2019-04-01T02:30:26.363Z,29.3
2019-04-01T02:35:31.616Z,28.9
2019-04-01T02:40:37.073Z,31
2019-04-01T02:45:42.287Z,28.2
2019-04-01T02:50:47.608Z,31.3
2019-04-01T02:55:52.802Z,31.8
2019-04-01T03:00:56.921Z,32.4
2019-04-01T03:06:02.021Z,31.3
2019-04-01T03:11:10.142Z,31
2019-04-01T03:16:16.471Z,31.6
2019-04-01T03:21:21.660Z,32
2019-04-01T03:26:25.337Z,32.4
2019-04-01T03:31:30.836Z,33.3
2019-04-01T03:36:36.671Z,33.3
2019-04-01T03:41:41.779Z,34.5
2019-04-01T03:46:47.164Z,32.4
2019-04-01T03:51:52.117Z,35.6
2019-04-01T03:56:57.447Z,35
2019-04-01T04:02:02.663Z,36.7
2019-04-01T04:07:08.445Z,37.2
2019-04-01T04:12:13.977Z,37.9
2019-04-01T04:17:19.402Z,38.5
2019-04-01T04:22:26.215Z,39.6
2019-04-01T04:27:31.583Z,42.1
2019-04-01T04:32:37.090Z,41.7
2019-04-01T04:37:42.691Z,39.4
2019-04-01T04:42:47.930Z,44.7
2019-04-01T04:47:53.368Z,41
2019-04-01T04:52:58.660Z,39.7
2019-04-01T04:58:02.475Z,49.2
2019-04-01T05:03:07.445Z,45.2
2019-04-01T05:08:12.852Z,48.3
2019-04-01T05:13:17.772Z,45.7
2019-04-01T05:18:22.960Z,44.3
2019-04-01T05:23:28.188Z,51.8
2019-04-01T05:28:31.881Z,52.4
2019-04-01T05:33:37.116Z,56.7
2019-04-01T05:38:42.743Z,64.2
2019-04-01T05:43:47.936Z,66.6
2019-04-01T05:48:53.032Z,56.7
2019-04-01T05:53:58.380Z,51.2
2019-04-01T05:59:03.778Z,53.4
2019-04-01T06:04:08.740Z,45.5
2019-04-01T06:09:14.129Z,51.6
2019-04-01T06:14:19.258Z,47.8
2019-04-01T06:19:24.662Z,58.6
2019-04-01T06:24:29.760Z,48.1
2019-04-01T06:29:35.149Z,56.4
2019-04-01T06:34:52.214Z,50.1
2019-04-01T06:39:48.084Z,43.3
2019-04-01T06:44:51.665Z,62.1
2019-04-01T06:49:56.925Z,50.4
2019-04-01T06:55:00.536Z,37.1
2019-04-01T07:00:05.778Z,40.6
2019-04-01T07:05:12.653Z,41.3
2019-04-01T07:10:18.330Z,35.9
2019-04-01T07:15:27.522Z,39.1
2019-04-01T07:20:32.811Z,64.8
2019-04-01T07:25:38.046Z,54.6
2019-04-01T07:30:43.575Z,43.5
2019-04-01T07:35:48.774Z,104.4
2019-04-01T07:40:53.911Z,72.5
2019-04-01T07:46:02.798Z,40
2019-04-01T07:51:11.755Z,37.3
2019-04-01T07:56:15.784Z,59.9
2019-04-01T08:01:20.939Z,37.7
2019-04-01T08:06:24.873Z,40.7
2019-04-01T08:11:28.632Z,54.5
2019-04-01T08:16:33.776Z,31.3
2019-04-01T08:21:38.842Z,43.9
2019-04-01T08:26:46.974Z,63.4
2019-04-01T08:31:52.698Z,60.6
2019-04-01T08:36:57.954Z,52.6
2019-04-01T08:42:03.817Z,87.7
2019-04-01T08:47:09.365Z,36.6
2019-04-01T08:52:13.448Z,31.3
2019-04-01T08:57:18.399Z,48.3
2019-04-01T09:02:23.624Z,25.7
2019-04-01T09:07:27.319Z,54.1
2019-04-01T09:12:32.417Z,30.9
2019-04-01T09:17:40.156Z,23.6
2019-04-01T09:22:45.739Z,47.8
2019-04-01T09:27:53.835Z,56.2
2019-04-01T09:32:59.149Z,30.7
2019-04-01T09:38:04.304Z,32.8
2019-04-01T09:43:09.530Z,49
2019-04-01T09:48:18.330Z,29
2019-04-01T09:53:27.267Z,86.6
2019-04-01T09:58:32.673Z,29.7
2019-04-01T10:03:36.435Z,19.2
2019-04-01T10:08:42.857Z,19.7
2019-04-01T10:13:48.545Z,71.4
2019-04-01T10:18:53.697Z,23.3
2019-04-01T10:23:58.957Z,17.2
2019-04-01T10:29:04.508Z,23.8
2019-04-01T10:34:09.916Z,21.2
2019-04-01T10:39:15.199Z,27.6
2019-04-01T10:44:20.816Z,21.7
2019-04-01T10:49:26.251Z,22.5
2019-04-01T10:54:35.520Z,29.7
2019-04-01T10:59:41.260Z,27.6
2019-04-01T11:04:47.395Z,21.8
2019-04-01T11:09:53.048Z,26.1
2019-04-01T11:15:01.445Z,28.8
2019-04-01T11:20:08.194Z,18.9
2019-04-01T11:25:14.227Z,25.6
2019-04-01T11:30:19.409Z,21.1
2019-04-01T11:35:25.071Z,19.9
2019-04-01T11:40:30.105Z,17
2019-04-01T11:45:35.797Z,20.2
2019-04-01T11:50:39.810Z,19.6
2019-04-01T11:55:45.214Z,24.9
2019-04-01T12:00:50.338Z,22.1
2019-04-01T12:05:55.528Z,26.1
2019-04-01T12:11:00.998Z,24.7
2019-04-01T12:16:06.799Z,33.1
2019-04-01T12:21:13.513Z,23.5
2019-04-01T12:26:18.635Z,44.2
2019-04-01T12:31:23.735Z,21.5
2019-04-01T12:36:28.951Z,18.9
2019-04-01T12:41:34.172Z,19.7
2019-04-01T12:46:39.438Z,17.6
2019-04-01T12:51:44.500Z,27
2019-04-01T12:56:49.765Z,17.5
2019-04-01T13:01:53.276Z,30.6
2019-04-01T13:06:59.041Z,18.8
2019-04-01T13:12:06.557Z,20
2019-04-01T13:17:11.692Z,20.2
2019-04-01T13:22:17.039Z,22.5
2019-04-01T13:27:22.560Z,19.1
2019-04-01T13:32:30.868Z,26.3
2019-04-01T13:37:36.484Z,19.2
2019-04-01T13:42:43.205Z,19.4
2019-04-01T13:47:49.633Z,20.9
2019-04-01T13:52:55.199Z,20.7
2019-04-01T13:58:00.435Z,21.1
2019-04-01T14:03:05.592Z,25.4
2019-04-01T14:08:14.030Z,19.6
2019-04-01T14:13:19.067Z,15.1
2019-04-01T14:18:24.513Z,17.9
2019-04-01T14:23:29.779Z,24.5
2019-04-01T14:28:35.348Z,13.2
2019-04-01T14:33:41.886Z,18.1
2019-04-01T14:38:46.876Z,27.3
2019-04-01T14:43:54.986Z,27.7
2019-04-01T14:49:01.884Z,25.4
2019-04-01T14:54:06.691Z,21.7
2019-04-01T14:59:14.600Z,15.7
2019-04-01T15:04:21.965Z,15.9
2019-04-01T15:09:23.147Z,24
2019-04-01T15:14:19.991Z,18.7
2019-04-01T15:19:26.094Z,17.4
2019-04-01T15:24:34.830Z,20.7
2019-04-01T15:29:39.865Z,21.6
2019-04-01T15:34:44.931Z,38.4
2019-04-01T15:39:52.208Z,30.8
2019-04-01T15:44:57.635Z,14.9
2019-04-01T15:50:03.274Z,31.3
2019-04-01T15:51:15.373Z,33.2
2019-04-01T15:56:20.601Z,14.2
2019-04-01T16:01:30.255Z,13.3
2019-04-01T16:06:37.193Z,18.8
2019-04-01T16:11:42.380Z,18.3
2019-04-01T16:16:47.797Z,17.3
2019-04-01T16:21:53.414Z,16.9
2019-04-01T16:27:02.820Z,25.2
2019-04-01T16:32:08.063Z,10.8
2019-04-01T16:37:13.496Z,12.6
2019-04-01T16:42:19.449Z,14.4
2019-04-01T16:47:24.826Z,14.4
2019-04-01T16:52:29.983Z,11.7
2019-04-01T16:57:35.324Z,15.6
2019-04-01T17:02:41.485Z,15
2019-04-01T17:07:46.394Z,13.4
2019-04-01T17:12:49.946Z,23.4
2019-04-01T17:17:55.414Z,10.3
2019-04-01T17:23:01.576Z,12.7
2019-04-01T17:28:06.702Z,13.7
2019-04-01T17:33:11.708Z,12.3
2019-04-01T17:38:16.736Z,16.4
2019-04-01T17:43:23.198Z,13
2019-04-01T17:48:29.754Z,14.9
2019-04-01T17:53:36.097Z,22
2019-04-01T17:58:38.154Z,18.3
2019-04-01T18:03:43.141Z,15.6
2019-04-01T18:08:48.228Z,17.7
2019-04-01T18:13:53.838Z,13.3
2019-04-01T18:18:59.690Z,12.9
2019-04-01T18:24:05.119Z,13
2019-04-01T18:29:10.566Z,13.7
2019-04-01T18:34:15.653Z,13.4
2019-04-01T18:39:20.762Z,15
2019-04-01T18:44:25.832Z,12.8
2019-04-01T18:49:31.086Z,13.3
2019-04-01T18:54:36.476Z,16
2019-04-01T18:59:40.188Z,13.2
2019-04-01T19:04:45.292Z,12.6
2019-04-01T19:09:50.638Z,13.2
2019-04-01T19:15:02.272Z,15.3
2019-04-01T19:20:07.866Z,17.2
2019-04-01T19:25:15.181Z,11.5
2019-04-01T19:30:21.232Z,8.6
2019-04-01T19:35:26.758Z,11.9
2019-04-01T19:40:31.809Z,10.5
2019-04-01T19:45:35.862Z,13.9
2019-04-01T19:50:44.248Z,11
2019-04-01T19:55:48.094Z,9.7
2019-04-01T20:00:53.005Z,12.3
2019-04-01T20:05:57.953Z,10.3
2019-04-01T20:11:05.553Z,12.1
2019-04-01T20:16:11.626Z,10.9
2019-04-01T20:21:14.854Z,12
2019-04-01T20:26:19.944Z,16.5
2019-04-01T20:31:25.373Z,13.2
2019-04-01T20:36:31.824Z,10.3
2019-04-01T20:41:37.196Z,11.9
2019-04-01T20:46:41.499Z,10.4
2019-04-01T20:51:46.534Z,10.9
2019-04-01T20:56:51.773Z,9.5
2019-04-01T21:01:55.351Z,9.2
2019-04-01T21:07:00.736Z,16.5
2019-04-01T21:12:08.168Z,10.5
2019-04-01T21:17:13.757Z,12.3
2019-04-01T21:22:19.213Z,9.5
2019-04-01T21:27:24.593Z,11.6
2019-04-01T21:32:29.623Z,12.4
2019-04-01T21:37:34.186Z,20.5
2019-04-01T21:42:43.001Z,11.1
2019-04-01T21:47:48.708Z,9.1
2019-04-01T21:52:53.781Z,12.8
2019-04-01T21:57:59.033Z,11.9
2019-04-01T22:03:04.434Z,9.6
2019-04-01T22:08:10.083Z,10.1
2019-04-01T22:13:15.355Z,11.9
2019-04-01T22:18:20.712Z,10.5
2019-04-01T22:23:26.022Z,11.3
2019-04-01T22:28:31.216Z,10.1
2019-04-01T22:33:36.204Z,15.5
2019-04-01T22:38:41.574Z,10.2
2019-04-01T22:43:47.062Z,13.7
2019-04-01T22:48:52.531Z,9.4
2019-04-01T22:53:57.575Z,10.3
2019-04-01T22:59:02.783Z,10.4
2019-04-01T23:04:08.977Z,9.7
2019-04-01T23:09:14.325Z,9.5
2019-04-01T23:14:19.433Z,11.8
2019-04-01T23:19:24.661Z,8.3
2019-04-01T23:24:30.074Z,15.2
2019-04-01T23:29:35.451Z,8.2
2019-04-01T23:34:41.029Z,10.2
2019-04-01T23:39:47.644Z,11.8
2019-04-01T23:44:52.771Z,13.2
2019-04-01T23:49:57.908Z,11.9
2019-04-01T23:55:01.667Z,11
